Overview Statistics Trail Chart Weather Telemetry Raw packets
 

This is the latest recevied weather packets stored in our database for station/object DG6YGE-6. If no packets are shown the sender has not sent any weather packets the latest 10 day(s).

<< 7 8 9 10 11 12 13 >>
Time Temp. Humidity Pressure Rain* Wind** Luminosity Snow
1788533950 17.78° C 94% 1008 hPa 2.79 mm - 55 W/m² -
1788533350 17.78° C 88% 1008 hPa 2.79 mm - 41 W/m² -
1788532750 17.78° C 88% 1007.9 hPa 3.05 mm - 73 W/m² -
1788532175 17.78° C 88% 1008.1 hPa 3.05 mm - 82 W/m² -
1788531550 17.78° C 88% 1008.3 hPa 3.81 mm - 65 W/m² -
1788530950 17.78° C 88% 1008.2 hPa 3.81 mm - 81 W/m² -
1788530350 17.78° C 88% 1008.3 hPa 3.3 mm - 123 W/m² -
1788529750 17.78° C 88% 1008.4 hPa 2.54 mm - 57 W/m² -
1788529165 17.78° C 88% 1008.1 hPa 2.79 mm - 38 W/m² -
1788528550 17.78° C 88% 1008.1 hPa 8.13 mm - 82 W/m² -
1788527950 17.78° C 88% 1008.1 hPa 7.37 mm - 51 W/m² -
1788527350 17.78° C 88% 1008.1 hPa 7.11 mm - 76 W/m² -
1788526750 17.78° C 88% 1008.2 hPa 6.86 mm - 79 W/m² -
1788526150 18.33° C 83% 1008.2 hPa 6.6 mm - 67 W/m² -
1788525551 20° C 83% 1008.3 hPa 5.59 mm - 81 W/m² -
1788524950 22.78° C 78% 1008.1 hPa 0 mm - 41 W/m² -
1788524350 22.78° C 76% 1007.5 hPa 0 mm - 76 W/m² -
1788523750 23.33° C 76% 1007 hPa 0 mm - 143 W/m² -
1788523150 23.33° C 75% 1006.5 hPa 0 mm - 268 W/m² -
1788522550 22.78° C 77% 1006.7 hPa 0 mm - 307 W/m² -
1788521950 22.78° C 78% 1006.8 hPa 0 mm - 305 W/m² -
1788521350 22.78° C 76% 1007 hPa 0 mm - 272 W/m² -
1788520771 22.78° C 75% 1007.2 hPa 0 mm - 99 W/m² -
1788520152 23.33° C 75% 1006.8 hPa 0 mm - 236 W/m² -
1788519552 22.78° C 75% 1007 hPa 0 mm - 257 W/m² -

* Rain latest hour (hover to see other rain measurements)
** Current wind speed in m/s (hover to see current wind gust speed)